Main page
METAR-TAF:

METAR-TAF

Airports :

Bishop International Airport

Flint, Michigan, United States

latitude: 42-58-00N, longitude: 083-44-58W, elevation: 238 m

Current weather observation

The report was made 27 minutes ago, at 16:53 UTC
Wind 4 kt from variable directions
Temperature 23°C
Humidity 47%
Pressure 1023 hPa
Visibility: 16.1 km
Clear sky

METAR: KFNT 151653Z VRB04KT 10SM CLR 23/11 A3020 RMK AO2 SLP226 T02330111

Time: 13:20 (17:20 UTC)

Forecast

The report was made 6 hours and 0 minutes ago, at 11:20 UTC
Forecast valid from 15 at 12 UTC to 16 at 12 UTC
Wind 6 kt from the East
Visibility: 10 km
Scattered clouds at a height of 25000 ft
From 16 at 0100 UTC
Wind 4 kt from the East
Visibility: 10 km
Scattered clouds at a height of 15000 ft
Broken clouds at a height of 25000 ft

TAF: KFNT 151120Z 1512/1612 08006KT P6SM SCT250 FM160100 10004KT P6SM SCT150 BKN250

Weather observations and forecasts of more than 4000 airports (METAR and TAF reports).

The available stations are represented by yellow and red dots on the map.

Hover mouse over dot to see the name of the station.

Then click to see weather observations and forecasts.

To change the map : click on the green buttons with a black cross to zoom in, on the green button with a dash to zoom out, or on the green arrows for adjacent maps.


METAR-TAF: